メインページ
METAR-TAF:

METAR-TAF

空港 :

ラガーディア空港

ニューヨーク / ラガーディア, ニューヨーク, アメリカ合衆国

緯度: 40-46-45N, 経度: 073-52-48W, 海抜: 6m

現時点の気象観測

当レポートは1時間0分前の16:51(UTC)に作成
変向風 6kt
気温 23°C
湿度 65%
気圧 1023 hPa
視程: 16.1km
高度2200ftの雲はほとんどない

METAR: KLGA 261651Z VRB06KT 10SM FEW022 23/16 A3022 RMK AO2 SLP231 T02280156

時間: 13:51 (17:51 UTC)

予報

当レポートは23分前の17:28(UTC)に作成
予報は26日の 18時(UTC)から 27日の 24時(UTC)まで有効
南/南東の風 7kt
視程: 10km
高度2000ftの雲は散在している
27日の 0400時(UTC)から
の風 3kt
視程: 3.2km
高度600ftの曇り
27日の 1300時(UTC)から
の風 5kt
視程: 10km
高度700ftの千切れ雲あり
高度1500ftの千切れ雲あり
27日の 1500時(UTC)から
の風 7kt
視程: 10km
高度1500ftの雲は散在している

TAF: KLGA 261728Z 2618/2724 15007KT P6SM SCT020 FM270400 17003KT 2SM BR OVC006 FM271300 17005KT P6SM BKN007 BKN015 FM271500 17007KT P6SM SCT015

4,000以上の空港の気象観測と天気予報(METAR報とTAF報)

利用可能な観測所は地図上に黄色い丸と赤い丸で示す。

丸の上にカーソルを重ねると観測所名を参照できる。

次にクリックすると気象観測と天気予報を参照できる。

マップの切り替え:黒色「×」印の緑ボタンをクリックして拡大、「-」印の緑ボタンをクリックして縮小、緑色の三角印をクリックして隣りの地図に切り替え


METAR-TAF: